Celebrity Galaxy — 9HJH9 — position and weather

sailwx.info

Track history (hours):
 
Tides and Currents Weather Stations Pressure Air Temp Water Temp Dewpoint Dewpoint Depression Visibility Wind Speed Wind Dir Waves Ship Positions

Celebrity Galaxy

Last reported at 2019-May-20 16:30 UTC. Time now 2019-May-20 16:52 UTC.
Position N 57°40' E 007°37'.

Length 262 m; draft 8.5 m.

Type: Passenger vessel. MMSI: 249051000.

Date/timePositionNaut miles runAvg speedWind from/ knotsBaromVisibWave heightAir tempDewpointWater temp
2019-May-20 16:30N 57°40' E 007°37'714.3
2019-May-20 16:00N 57°37' E 007°24'715.0
2019-May-20 15:30N 57°34' E 007°12'815.4
2019-May-20 15:00N 57°31' E 006°59'815.5
2019-May-20 14:30N 57°28' E 006°46'815.3
2019-May-20 14:00N 57°25' E 006°33'814.9
2019-May-20 13:30N 57°22' E 006°20'714.6
2019-May-20 13:00N 57°19' E 006°07'714.5
2019-May-20 12:30N 57°16' E 005°55'714.7
2019-May-20 12:00N 57°13' E 005°43'714.6
2019-May-20 11:30N 57°11' E 005°30'914.6
2019-May-20 10:54N 57°07' E 005°15'614.7
2019-May-20 10:28N 57°05' E 005°04'814.7
2019-May-20 09:57N 57°02' E 004°52'714.8
2019-May-20 09:30N 56°59' E 004°41'1014.8
2019-May-20 08:51N 56°55' E 004°24'514.8
2019-May-20 08:29N 56°53' E 004°15'714.9
2019-May-20 08:00N 56°50' E 004°03'1615.0
2019-May-20 06:56N 56°44' E 003°36'17414.5
2019-May-19 18:56N 55°12' W 000°47'715.1
2019-May-19 18:30N 55°08' W 000°56'714.9
2019-May-19 18:01N 55°05' W 001°08'714.1
2019-May-19 17:30N 55°02' W 001°19'5 9.0
2019-May-19 17:00N 55°00' W 001°26'1 2.3
2019-May-19 16:30N 54°59' W 001°27'0 0.7
2019-May-19 16:01N 54°60' W 001°27'0 0.0
2019-May-19 15:30N 54°60' W 001°27'0 0.0
2019-May-19 14:57N 54°60' W 001°27'0 0.0
2019-May-19 14:27N 54°60' W 001°27'0 0.0
2019-May-19 13:57N 54°60' W 001°27'0 0.0
2019-May-19 13:27N 54°60' W 001°27'0 0.0
2019-May-19 12:57N 54°60' W 001°27'0 0.0
2019-May-19 12:27N 54°60' W 001°27'0 0.0
2019-May-19 12:00N 54°60' W 001°27'0 0.0
2019-May-19 11:27N 54°60' W 001°27'0 0.0
2019-May-19 10:57N 54°60' W 001°27'0 0.0
2019-May-19 10:29N 54°60' W 001°27'0 0.0
2019-May-19 09:59N 54°60' W 001°27'0 0.0
2019-May-19 09:29N 54°60' W 001°27'0 0.0
2019-May-19 08:59N 54°60' W 001°27'0 0.0
2019-May-19 08:29N 54°60' W 001°27'0 0.0
2019-May-19 07:59N 54°60' W 001°27'0 0.0
2019-May-19 07:29N 54°60' W 001°27'0 0.0
2019-May-19 06:59N 54°60' W 001°27'0 0.0
2019-May-19 06:29N 54°60' W 001°27'0 0.0
2019-May-19 05:59N 54°60' W 001°27'0 0.0
2019-May-19 05:28N 54°60' W 001°27'0 0.0
2019-May-19 04:58N 54°60' W 001°27'0 0.0
2019-May-19 04:30N 54°60' W 001°27'1 1.4
2019-May-19 04:01N 55°00' W 001°26'4 8.6
2019-May-19 03:30N 55°02' W 001°19'510.3
2019-May-19 03:00N 54°59' W 001°12'4 8.6
2019-May-19 02:30N 54°56' W 001°06'5 9.1
2019-May-19 02:00N 54°54' W 000°59'58 9.9
2019-May-18 20:09N 54°15' E 000°15'211.7
2019-May-18 20:00N 54°13' E 000°17'612.8
2019-May-18 19:30N 54°08' E 000°23'612.2
2019-May-18 19:00N 54°04' E 000°31'611.2
2019-May-18 18:30N 53°60' E 000°37'1011.2
2019-May-18 17:35N 53°52' E 000°48'110.7
2019-May-18 17:30N 53°52' E 000°49'510.6
2019-May-18 17:00N 53°48' E 000°55'510.4
2019-May-18 16:30N 53°44' E 001°01'611.1
2019-May-18 16:00N 53°40' E 001°08'612.2
2019-May-18 15:30N 53°35' E 001°14'713.0
2019-May-18 15:00N 53°30' E 001°21'1414.4
2019-May-18 14:03N 53°19' E 001°36'114.6
2019-May-18 14:00N 53°19' E 001°37'1315.8
2019-May-18 13:10N 53°08' E 001°50'316.3
2019-May-18 13:00N 53°06' E 001°53'816.1
2019-May-18 12:30N 53°00' E 002°02'815.4
2019-May-18 12:00N 52°54' E 002°09'714.8
2019-May-18 11:30N 52°47' E 002°12'713.9
2019-May-18 11:00N 52°40' E 002°13'713.6
2019-May-18 10:30N 52°33' E 002°12'713.1
2019-May-18 10:00N 52°27' E 002°11'612.7
2019-May-18 09:30N 52°20' E 002°09'612.2
2019-May-18 09:00N 52°15' E 002°04'612.1
2019-May-18 08:30N 52°10' E 001°59'612.0
2019-May-18 08:00N 52°04' E 001°55'611.5
2019-May-18 07:30N 51°59' E 001°52'612.2
2019-May-18 07:00N 51°53' E 001°49'611.6
2019-May-18 06:30N 51°47' E 001°49'713.1
2019-May-18 06:00N 51°41' E 001°49'713.8
2019-May-18 05:31N 51°34' E 001°49'713.3
2019-May-18 05:01N 51°28' E 001°55'713.5
2019-May-18 04:30N 51°24' E 002°02'713.8
2019-May-18 04:01N 51°18' E 001°55'714.4
2019-May-18 03:31N 51°13' E 001°48'714.4
2019-May-18 03:01N 51°07' E 001°41'714.6
2019-May-18 02:31N 51°02' E 001°33'714.8
2019-May-18 02:01N 50°56' E 001°25'815.0
2019-May-18 01:30N 50°49' E 001°22'1013.7
2019-May-18 00:47N 50°40' E 001°15'414.6
2019-May-18 00:30N 50°38' E 001°10'714.2
2019-May-18 00:00N 50°33' E 001°02'1213.6
2019-May-17 23:08N 50°29' E 000°44'4014.1
2019-May-17 20:18N 50°26' W 000°18'515.6
2019-May-17 19:59N 50°27' W 000°26'715.6
2019-May-17 19:30N 50°31' W 000°36'815.6
2019-May-17 19:00N 50°35' W 000°46'815.1
2019-May-17 18:30N 50°40' W 000°55'611.6
2019-May-17 18:00N 50°44' W 001°02'713.2
2019-May-17 17:30N 50°46' W 001°12'4 8.5
2019-May-17 17:00N 50°48' W 001°18'5 9.6
2019-May-17 16:30N 50°52' W 001°22'3 0.8
2019-May-17 13:08N 50°54' W 001°25'0 0.0
2019-May-17 12:58N 50°54' W 001°25'0 0.0
2019-May-17 12:16N 50°54' W 001°25'0 0.0
2019-May-17 11:55N 50°54' W 001°25'0 0.0
2019-May-17 11:22N 50°54' W 001°25'0 0.0
2019-May-17 10:58N 50°54' W 001°25'0 0.0
2019-May-17 10:28N 50°54' W 001°25'0 0.0
2019-May-17 09:58N 50°54' W 001°25'0 0.0
2019-May-17 09:10N 50°54' W 001°25'0 0.0
2019-May-17 08:34N 50°54' W 001°25'0 0.0
2019-May-17 08:01N 50°54' W 001°25'0 0.0
2019-May-17 07:49N 50°54' W 001°25'0 0.0
2019-May-17 07:09N 50°54' W 001°25'0 0.0
2019-May-17 06:51N 50°54' W 001°25'0 0.0
2019-May-17 06:06N 50°54' W 001°25'0 0.0
2019-May-17 05:54N 50°54' W 001°25'0 0.0
2019-May-17 05:30N 50°54' W 001°25'2 3.9
2019-May-17 05:00N 50°52' W 001°23'5 9.8
2019-May-17 04:30N 50°49' W 001°18'4 7.8
2019-May-17 04:01N 50°46' W 001°14'713.8
2019-May-17 03:30N 50°44' W 001°03'612.1
2019-May-17 03:00N 50°39' W 000°58'510.3
2019-May-17 02:30N 50°35' W 000°53'714.0
2019-May-17 02:00N 50°34' W 000°42'714.2
2019-May-17 01:30N 50°34' W 000°31'713.3
2019-May-17 01:00N 50°34' W 000°20'913.1
2019-May-17 00:20N 50°33' W 000°06'617.3
2019-May-17 00:00N 50°33' E 000°03'918.0
2019-May-16 23:30N 50°36' E 000°16'917.5
2019-May-16 22:59N 50°38' E 000°30'816.9
2019-May-16 22:30N 50°42' E 000°41'816.4
2019-May-16 22:00N 50°46' E 000°52'815.9
2019-May-16 21:30N 50°51' E 001°02'815.7
2019-May-16 21:00N 50°56' E 001°12'815.8
2019-May-16 20:30N 51°01' E 001°21'917.2
2019-May-16 20:00N 51°06' E 001°33'918.1
2019-May-16 19:30N 51°12' E 001°43'1019.1
2019-May-16 19:00N 51°20' E 001°52'816.2
2019-May-16 18:30N 51°25' E 002°02'816.6
2019-May-16 18:00N 51°21' E 002°14'917.9
2019-May-16 17:29N 51°22' E 002°29'816.7
2019-May-16 17:00N 51°22' E 002°42'713.9
2019-May-16 16:31N 51°23' E 002°53'815.6
2019-May-16 15:59N 51°24' E 003°06'610.2
2019-May-16 15:26N 51°20' E 003°13'0 0.0
2019-May-16 14:17N 51°20' E 003°13'0 0.0
2019-May-16 13:10N 51°20' E 003°13'0 0.0
2019-May-16 12:56N 51°20' E 003°13'0 0.0
2019-May-16 12:20N 51°20' E 003°13'0 0.0
2019-May-16 11:59N 51°20' E 003°13'0 0.0
2019-May-16 11:26N 51°20' E 003°13'0 0.0
2019-May-16 10:59N 51°20' E 003°13'0 0.0
2019-May-16 10:26N 51°20' E 003°13'0 0.0
2019-May-16 09:59N 51°20' E 003°13'0 0.0
2019-May-16 09:29N 51°20' E 003°13'0 0.0
2019-May-16 09:01N 51°20' E 003°13'0 0.0
2019-May-16 08:30N 51°20' E 003°13'0 0.0
2019-May-16 07:59N 51°20' E 003°13'0 0.0
2019-May-16 07:29N 51°20' E 003°13'0 0.0
2019-May-16 06:59N 51°20' E 003°13'0 0.0
2019-May-16 06:29N 51°20' E 003°13'0 0.3
2019-May-16 06:00N 51°20' E 003°13'5 9.1
2019-May-16 05:30N 51°24' E 003°07'612.5
2019-May-16 05:00N 51°23' E 002°57'713.4
2019-May-16 04:30N 51°21' E 002°47'510.3
2019-May-16 04:00N 51°22' E 002°39'612.0
2019-May-16 03:30N 51°21' E 002°29'612.7
2019-May-16 03:00N 51°19' E 002°20'713.2
2019-May-16 02:30N 51°15' E 002°12'612.9
2019-May-16 02:00N 51°11' E 002°03'714.0
2019-May-16 01:30N 51°08' E 001°53'714.2
2019-May-16 01:00N 51°04' E 001°44'714.8
2019-May-16 00:30N 50°59' E 001°36'815.2
2019-May-16 00:00N 50°52' E 001°29'715.2
2019-May-15 23:30N 50°45' E 001°25'714.5
2019-May-15 23:00N 50°39' E 001°18'714.5
2019-May-15 22:30N 50°34' E 001°10'714.3
2019-May-15 22:00N 50°29' E 001°02'714.1
2019-May-15 21:30N 50°25' E 000°53'713.9
2019-May-15 21:00N 50°19' E 000°46'714.1
2019-May-15 20:30N 50°14' E 000°39'914.2
2019-May-15 19:54N 50°07' E 000°30'914.1
2019-May-15 19:16N 50°00' E 000°22'414.7
2019-May-15 19:00N 49°58' E 000°17'815.1
2019-May-15 18:30N 49°52' E 000°10'815.3
2019-May-15 18:00N 49°46' E 000°02'714.4
2019-May-15 17:30N 49°40' W 000°03'713.5
2019-May-15 17:00N 49°33' W 000°05'4 8.9
2019-May-15 16:30N 49°30' W 000°00'5 9.4
2019-May-15 16:00N 49°29' E 000°07'0 0.3
2019-May-15 15:29N 49°29' E 000°06'0 0.0
2019-May-15 14:59N 49°29' E 000°06'0 0.0
2019-May-15 14:30N 49°29' E 000°06'0 0.0
2019-May-15 14:00N 49°29' E 000°06'0 0.0
2019-May-15 13:28N 49°29' E 000°06'0 0.0
2019-May-15 12:58N 49°29' E 000°06'0 0.0
2019-May-15 12:30N 49°29' E 000°06'0 0.0
2019-May-15 12:00N 49°29' E 000°06'0 0.0
2019-May-15 11:27N 49°29' E 000°06'0 0.0
2019-May-15 10:59N 49°29' E 000°06'0 0.0
2019-May-15 10:29N 49°29' E 000°06'0 0.0
2019-May-15 09:59N 49°29' E 000°06'0 0.0
2019-May-15 09:29N 49°29' E 000°06'0 0.0
2019-May-15 09:00N 49°29' E 000°06'0 0.0
2019-May-15 08:30N 49°29' E 000°06'0 0.0
2019-May-15 07:58N 49°29' E 000°06'0 0.0
2019-May-15 07:30N 49°29' E 000°06'0 0.0
2019-May-15 07:00N 49°29' E 000°06'0 0.0
2019-May-15 06:29N 49°29' E 000°06'0 0.0
2019-May-15 05:59N 49°29' E 000°06'0 0.9
2019-May-15 05:30N 49°29' E 000°07'3 5.3
2019-May-15 05:00N 49°30' E 000°03'510.8
2019-May-15 04:30N 49°31' W 000°05'3 6.8
2019-May-15 04:00N 49°32' W 000°10'3 6.4
2019-May-15 03:30N 49°33' W 000°15'3 6.2
2019-May-15 03:00N 49°35' W 000°19'3 6.7
2019-May-15 02:30N 49°36' W 000°24'3 6.8
2019-May-15 02:00N 49°38' W 000°28'3 6.4
2019-May-15 01:30N 49°39' W 000°32'3 6.2
2019-May-15 01:00N 49°41' W 000°37'3 6.2
2019-May-15 00:30N 49°42' W 000°41'3 5.8
2019-May-15 00:00N 49°44' W 000°44'3 6.2
2019-May-14 23:29N 49°46' W 000°48'3 5.9
2019-May-14 23:00N 49°48' W 000°52'11 5.9
2019-May-14 21:10N 49°54' W 001°06'2 6.1
2019-May-14 20:51N 49°54' W 001°09'2 6.4
2019-May-14 20:30N 49°55' W 001°12'3 6.2
2019-May-14 20:00N 49°56' W 001°17'3 6.3
2019-May-14 19:31N 49°57' W 001°21'3 6.5
2019-May-14 19:01N 49°56' W 001°26'3 6.8
2019-May-14 18:30N 49°54' W 001°31'3 6.9
2019-May-14 18:00N 49°51' W 001°33'3 6.9
2019-May-14 17:31N 49°48' W 001°35'4 7.0
2019-May-14 17:01N 49°45' W 001°38'4 7.5
2019-May-14 16:30N 49°42' W 001°40'3 1.3
2019-May-14 13:57N 49°39' W 001°37'0 0.0
2019-May-14 13:27N 49°39' W 001°37'0 0.0
2019-May-14 12:57N 49°39' W 001°37'0 0.0
2019-May-14 12:14N 49°39' W 001°37'0 0.0
2019-May-14 12:00N 49°39' W 001°37'0 0.0
2019-May-14 11:27N 49°39' W 001°37'0 0.0
2019-May-14 10:59N 49°39' W 001°37'0 0.0
2019-May-14 10:27N 49°39' W 001°37'0 0.0
2019-May-14 09:56N 49°39' W 001°37'0 0.0
2019-May-14 09:23N 49°39' W 001°37'0 0.0
2019-May-14 08:59N 49°39' W 001°37'0 0.0
2019-May-14 08:29N 49°39' W 001°37'0 0.0
2019-May-14 07:59N 49°39' W 001°37'0 0.0
2019-May-14 07:25N 49°39' W 001°37'0 0.0
2019-May-14 06:58N 49°39' W 001°37'0 0.0
2019-May-14 06:22N 49°39' W 001°37'0 1.0
2019-May-14 06:00N 49°39' W 001°37'4 8.5
2019-May-14 05:30N 49°42' W 001°41'510.9
2019-May-14 05:00N 49°45' W 001°49'815.0
2019-May-14 04:30N 49°48' W 001°60'816.9
2019-May-14 04:00N 49°51' W 002°12'816.7
2019-May-14 03:30N 49°53' W 002°24'917.7
2019-May-14 03:01N 49°51' W 002°38'918.0
2019-May-14 02:30N 49°49' W 002°51'917.3
2019-May-14 02:00N 49°46' W 003°04'917.6
2019-May-14 01:30N 49°40' W 003°15'917.9
2019-May-14 01:00N 49°34' W 003°25'918.2
2019-May-14 00:30N 49°29' W 003°36'918.3
2019-May-14 00:00N 49°24' W 003°48'918.1
2019-May-13 23:31N 49°18' W 003°59'917.9
2019-May-13 23:00N 49°13' W 004°10'1017.9
2019-May-13 22:28N 49°07' W 004°21'817.9
2019-May-13 22:00N 49°02' W 004°31'918.0
2019-May-13 21:31N 48°56' W 004°42'917.7
2019-May-13 21:01N 48°51' W 004°53'917.6
2019-May-13 20:31N 48°45' W 005°03'917.2
2019-May-13 20:01N 48°40' W 005°13'816.7
2019-May-13 19:30N 48°33' W 005°21'713.2
2019-May-13 19:01N 48°27' W 005°24'816.9
2019-May-13 18:30N 48°23' W 005°14'816.5
2019-May-13 18:00N 48°18' W 005°03'715.0
2019-May-13 17:30N 48°17' W 004°52'715.0
2019-May-13 17:01N 48°18' W 004°41'713.8
2019-May-13 16:30N 48°21' W 004°32'3 6.1
2019-May-13 15:58N 48°23' W 004°28'0 0.0
2019-May-13 15:28N 48°23' W 004°27'0 0.0
2019-May-13 14:58N 48°23' W 004°28'0 0.0
2019-May-13 14:28N 48°23' W 004°27'0 0.0
2019-May-13 13:58N 48°23' W 004°28'0 0.0
2019-May-13 13:30N 48°23' W 004°28'0 0.0
2019-May-13 13:00N 48°23' W 004°28'0 0.0
2019-May-13 12:30N 48°23' W 004°28'0 0.0
2019-May-13 12:00N 48°23' W 004°27'0 0.0
2019-May-13 11:30N 48°23' W 004°27'0 0.0
2019-May-13 10:59N 48°23' W 004°28'0 0.0
2019-May-13 10:30N 48°23' W 004°27'0 0.0
2019-May-13 10:00N 48°23' W 004°27'0 0.0
2019-May-13 09:29N 48°23' W 004°27'0 0.0
2019-May-13 08:59N 48°23' W 004°28'0 0.0
2019-May-13 08:29N 48°23' W 004°27'0 0.0
2019-May-13 07:59N 48°23' W 004°27'0 0.4
2019-May-13 07:30N 48°23' W 004°28'4 8.3
2019-May-13 07:01N 48°21' W 004°33'714.5
2019-May-13 06:30N 48°18' W 004°43'816.9
2019-May-13 06:00N 48°15' W 004°55'917.5
2019-May-13 05:31N 48°12' W 005°07'917.1
2019-May-13 04:57N 48°08' W 005°20'47817.7
2019-May-12 02:01N 43°55' W 015°04'017.6
2019-May-12 02:00N 43°55' W 015°04'917.9
2019-May-12 01:30N 43°49' W 015°14'48218.9
2019-May-10 23:56N 38°48' W 023°36'819.0
2019-May-10 23:29N 38°43' W 023°44'1018.8
2019-May-10 22:56N 38°36' W 023°54'818.7
2019-May-10 22:30N 38°30' W 024°01'918.9
2019-May-10 22:00N 38°24' W 024°10'918.8
2019-May-10 21:31N 38°18' W 024°19'1019.3
2019-May-10 21:00N 38°11' W 024°28'1019.1
2019-May-10 20:30N 38°05' W 024°37'1019.3
2019-May-10 20:00N 37°59' W 024°47'1019.2
2019-May-10 19:30N 37°52' W 024°56'918.7
2019-May-10 19:00N 37°46' W 025°04'918.1
2019-May-10 18:30N 37°42' W 025°15'918.8
2019-May-10 18:01N 37°41' W 025°26'917.3
2019-May-10 17:30N 37°43' W 025°37'2 4.3
2019-May-10 16:59N 37°44' W 025°40'  
Track history (hours):
 
Tides and Currents Weather Stations Pressure Air Temp Water Temp Dewpoint Dewpoint Depression Visibility Wind Speed Wind Dir Waves Ship Positions

Celebrity Galaxy

Last reported at 2019-May-20 16:30 UTC. Time now 2019-May-20 16:52 UTC.
Position N 57°40' E 007°37'.

Length 262 m; draft 8.5 m.

Type: Passenger vessel. MMSI: 249051000.

Date/timePositionNaut miles runAvg speedWind from/ knotsBaromVisibWave heightAir tempDewpointWater temp
2019-May-20 16:30N 57°40' E 007°37'714.3
2019-May-20 16:00N 57°37' E 007°24'715.0
2019-May-20 15:30N 57°34' E 007°12'815.4
2019-May-20 15:00N 57°31' E 006°59'815.5
2019-May-20 14:30N 57°28' E 006°46'815.3
2019-May-20 14:00N 57°25' E 006°33'814.9
2019-May-20 13:30N 57°22' E 006°20'714.6
2019-May-20 13:00N 57°19' E 006°07'714.5
2019-May-20 12:30N 57°16' E 005°55'714.7
2019-May-20 12:00N 57°13' E 005°43'714.6
2019-May-20 11:30N 57°11' E 005°30'914.6
2019-May-20 10:54N 57°07' E 005°15'614.7
2019-May-20 10:28N 57°05' E 005°04'814.7
2019-May-20 09:57N 57°02' E 004°52'714.8
2019-May-20 09:30N 56°59' E 004°41'1014.8
2019-May-20 08:51N 56°55' E 004°24'514.8
2019-May-20 08:29N 56°53' E 004°15'714.9
2019-May-20 08:00N 56°50' E 004°03'1615.0
2019-May-20 06:56N 56°44' E 003°36'17414.5
2019-May-19 18:56N 55°12' W 000°47'715.1
2019-May-19 18:30N 55°08' W 000°56'714.9
2019-May-19 18:01N 55°05' W 001°08'714.1
2019-May-19 17:30N 55°02' W 001°19'5 9.0
2019-May-19 17:00N 55°00' W 001°26'1 2.3
2019-May-19 16:30N 54°59' W 001°27'0 0.7
2019-May-19 16:01N 54°60' W 001°27'0 0.0
2019-May-19 15:30N 54°60' W 001°27'0 0.0
2019-May-19 14:57N 54°60' W 001°27'0 0.0
2019-May-19 14:27N 54°60' W 001°27'0 0.0
2019-May-19 13:57N 54°60' W 001°27'0 0.0
2019-May-19 13:27N 54°60' W 001°27'0 0.0
2019-May-19 12:57N 54°60' W 001°27'0 0.0
2019-May-19 12:27N 54°60' W 001°27'0 0.0
2019-May-19 12:00N 54°60' W 001°27'0 0.0
2019-May-19 11:27N 54°60' W 001°27'0 0.0
2019-May-19 10:57N 54°60' W 001°27'0 0.0
2019-May-19 10:29N 54°60' W 001°27'0 0.0
2019-May-19 09:59N 54°60' W 001°27'0 0.0
2019-May-19 09:29N 54°60' W 001°27'0 0.0
2019-May-19 08:59N 54°60' W 001°27'0 0.0
2019-May-19 08:29N 54°60' W 001°27'0 0.0
2019-May-19 07:59N 54°60' W 001°27'0 0.0
2019-May-19 07:29N 54°60' W 001°27'0 0.0
2019-May-19 06:59N 54°60' W 001°27'0 0.0
2019-May-19 06:29N 54°60' W 001°27'0 0.0
2019-May-19 05:59N 54°60' W 001°27'0 0.0
2019-May-19 05:28N 54°60' W 001°27'0 0.0
2019-May-19 04:58N 54°60' W 001°27'0 0.0
2019-May-19 04:30N 54°60' W 001°27'1 1.4
2019-May-19 04:01N 55°00' W 001°26'4 8.6
2019-May-19 03:30N 55°02' W 001°19'510.3
2019-May-19 03:00N 54°59' W 001°12'4 8.6
2019-May-19 02:30N 54°56' W 001°06'5 9.1
2019-May-19 02:00N 54°54' W 000°59'58 9.9
2019-May-18 20:09N 54°15' E 000°15'211.7
2019-May-18 20:00N 54°13' E 000°17'612.8
2019-May-18 19:30N 54°08' E 000°23'612.2
2019-May-18 19:00N 54°04' E 000°31'611.2
2019-May-18 18:30N 53°60' E 000°37'1011.2
2019-May-18 17:35N 53°52' E 000°48'110.7
2019-May-18 17:30N 53°52' E 000°49'510.6
2019-May-18 17:00N 53°48' E 000°55'510.4
2019-May-18 16:30N 53°44' E 001°01'611.1
2019-May-18 16:00N 53°40' E 001°08'612.2
2019-May-18 15:30N 53°35' E 001°14'713.0
2019-May-18 15:00N 53°30' E 001°21'1414.4
2019-May-18 14:03N 53°19' E 001°36'114.6
2019-May-18 14:00N 53°19' E 001°37'1315.8
2019-May-18 13:10N 53°08' E 001°50'316.3
2019-May-18 13:00N 53°06' E 001°53'816.1
2019-May-18 12:30N 53°00' E 002°02'815.4
2019-May-18 12:00N 52°54' E 002°09'714.8
2019-May-18 11:30N 52°47' E 002°12'713.9
2019-May-18 11:00N 52°40' E 002°13'713.6
2019-May-18 10:30N 52°33' E 002°12'713.1
2019-May-18 10:00N 52°27' E 002°11'612.7
2019-May-18 09:30N 52°20' E 002°09'612.2
2019-May-18 09:00N 52°15' E 002°04'612.1
2019-May-18 08:30N 52°10' E 001°59'612.0
2019-May-18 08:00N 52°04' E 001°55'611.5
2019-May-18 07:30N 51°59' E 001°52'612.2
2019-May-18 07:00N 51°53' E 001°49'611.6
2019-May-18 06:30N 51°47' E 001°49'713.1
2019-May-18 06:00N 51°41' E 001°49'713.8
2019-May-18 05:31N 51°34' E 001°49'713.3
2019-May-18 05:01N 51°28' E 001°55'713.5
2019-May-18 04:30N 51°24' E 002°02'713.8
2019-May-18 04:01N 51°18' E 001°55'714.4
2019-May-18 03:31N 51°13' E 001°48'714.4
2019-May-18 03:01N 51°07' E 001°41'714.6
2019-May-18 02:31N 51°02' E 001°33'714.8
2019-May-18 02:01N 50°56' E 001°25'815.0
2019-May-18 01:30N 50°49' E 001°22'1013.7
2019-May-18 00:47N 50°40' E 001°15'414.6
2019-May-18 00:30N 50°38' E 001°10'714.2
2019-May-18 00:00N 50°33' E 001°02'1213.6
2019-May-17 23:08N 50°29' E 000°44'4014.1
2019-May-17 20:18N 50°26' W 000°18'515.6
2019-May-17 19:59N 50°27' W 000°26'715.6
2019-May-17 19:30N 50°31' W 000°36'815.6
2019-May-17 19:00N 50°35' W 000°46'815.1
2019-May-17 18:30N 50°40' W 000°55'611.6
2019-May-17 18:00N 50°44' W 001°02'713.2
2019-May-17 17:30N 50°46' W 001°12'4 8.5
2019-May-17 17:00N 50°48' W 001°18'5 9.6
2019-May-17 16:30N 50°52' W 001°22'3 0.8
2019-May-17 13:08N 50°54' W 001°25'0 0.0
2019-May-17 12:58N 50°54' W 001°25'0 0.0
2019-May-17 12:16N 50°54' W 001°25'0 0.0
2019-May-17 11:55N 50°54' W 001°25'0 0.0
2019-May-17 11:22N 50°54' W 001°25'0 0.0
2019-May-17 10:58N 50°54' W 001°25'0 0.0
2019-May-17 10:28N 50°54' W 001°25'0 0.0
2019-May-17 09:58N 50°54' W 001°25'0 0.0
2019-May-17 09:10N 50°54' W 001°25'0 0.0
2019-May-17 08:34N 50°54' W 001°25'0 0.0
2019-May-17 08:01N 50°54' W 001°25'0 0.0
2019-May-17 07:49N 50°54' W 001°25'0 0.0
2019-May-17 07:09N 50°54' W 001°25'0 0.0
2019-May-17 06:51N 50°54' W 001°25'0 0.0
2019-May-17 06:06N 50°54' W 001°25'0 0.0
2019-May-17 05:54N 50°54' W 001°25'0 0.0
2019-May-17 05:30N 50°54' W 001°25'2 3.9
2019-May-17 05:00N 50°52' W 001°23'5 9.8
2019-May-17 04:30N 50°49' W 001°18'4 7.8
2019-May-17 04:01N 50°46' W 001°14'713.8
2019-May-17 03:30N 50°44' W 001°03'612.1
2019-May-17 03:00N 50°39' W 000°58'510.3
2019-May-17 02:30N 50°35' W 000°53'714.0
2019-May-17 02:00N 50°34' W 000°42'714.2
2019-May-17 01:30N 50°34' W 000°31'713.3
2019-May-17 01:00N 50°34' W 000°20'913.1
2019-May-17 00:20N 50°33' W 000°06'617.3
2019-May-17 00:00N 50°33' E 000°03'918.0
2019-May-16 23:30N 50°36' E 000°16'917.5
2019-May-16 22:59N 50°38' E 000°30'816.9
2019-May-16 22:30N 50°42' E 000°41'816.4
2019-May-16 22:00N 50°46' E 000°52'815.9
2019-May-16 21:30N 50°51' E 001°02'815.7
2019-May-16 21:00N 50°56' E 001°12'815.8
2019-May-16 20:30N 51°01' E 001°21'917.2
2019-May-16 20:00N 51°06' E 001°33'918.1
2019-May-16 19:30N 51°12' E 001°43'1019.1
2019-May-16 19:00N 51°20' E 001°52'816.2
2019-May-16 18:30N 51°25' E 002°02'816.6
2019-May-16 18:00N 51°21' E 002°14'917.9
2019-May-16 17:29N 51°22' E 002°29'816.7
2019-May-16 17:00N 51°22' E 002°42'713.9
2019-May-16 16:31N 51°23' E 002°53'815.6
2019-May-16 15:59N 51°24' E 003°06'610.2
2019-May-16 15:26N 51°20' E 003°13'0 0.0
2019-May-16 14:17N 51°20' E 003°13'0 0.0
2019-May-16 13:10N 51°20' E 003°13'0 0.0
2019-May-16 12:56N 51°20' E 003°13'0 0.0
2019-May-16 12:20N 51°20' E 003°13'0 0.0
2019-May-16 11:59N 51°20' E 003°13'0 0.0
2019-May-16 11:26N 51°20' E 003°13'0 0.0
2019-May-16 10:59N 51°20' E 003°13'0 0.0
2019-May-16 10:26N 51°20' E 003°13'0 0.0
2019-May-16 09:59N 51°20' E 003°13'0 0.0
2019-May-16 09:29N 51°20' E 003°13'0 0.0
2019-May-16 09:01N 51°20' E 003°13'0 0.0
2019-May-16 08:30N 51°20' E 003°13'0 0.0
2019-May-16 07:59N 51°20' E 003°13'0 0.0
2019-May-16 07:29N 51°20' E 003°13'0 0.0
2019-May-16 06:59N 51°20' E 003°13'0 0.0
2019-May-16 06:29N 51°20' E 003°13'0 0.3
2019-May-16 06:00N 51°20' E 003°13'5 9.1
2019-May-16 05:30N 51°24' E 003°07'612.5
2019-May-16 05:00N 51°23' E 002°57'713.4
2019-May-16 04:30N 51°21' E 002°47'510.3
2019-May-16 04:00N 51°22' E 002°39'612.0
2019-May-16 03:30N 51°21' E 002°29'612.7
2019-May-16 03:00N 51°19' E 002°20'713.2
2019-May-16 02:30N 51°15' E 002°12'612.9
2019-May-16 02:00N 51°11' E 002°03'714.0
2019-May-16 01:30N 51°08' E 001°53'714.2
2019-May-16 01:00N 51°04' E 001°44'714.8
2019-May-16 00:30N 50°59' E 001°36'815.2
2019-May-16 00:00N 50°52' E 001°29'715.2
2019-May-15 23:30N 50°45' E 001°25'714.5
2019-May-15 23:00N 50°39' E 001°18'714.5
2019-May-15 22:30N 50°34' E 001°10'714.3
2019-May-15 22:00N 50°29' E 001°02'714.1
2019-May-15 21:30N 50°25' E 000°53'713.9
2019-May-15 21:00N 50°19' E 000°46'714.1
2019-May-15 20:30N 50°14' E 000°39'914.2
2019-May-15 19:54N 50°07' E 000°30'914.1
2019-May-15 19:16N 50°00' E 000°22'414.7
2019-May-15 19:00N 49°58' E 000°17'815.1
2019-May-15 18:30N 49°52' E 000°10'815.3
2019-May-15 18:00N 49°46' E 000°02'714.4
2019-May-15 17:30N 49°40' W 000°03'713.5
2019-May-15 17:00N 49°33' W 000°05'4 8.9
2019-May-15 16:30N 49°30' W 000°00'5 9.4
2019-May-15 16:00N 49°29' E 000°07'0 0.3
2019-May-15 15:29N 49°29' E 000°06'0 0.0
2019-May-15 14:59N 49°29' E 000°06'0 0.0
2019-May-15 14:30N 49°29' E 000°06'0 0.0
2019-May-15 14:00N 49°29' E 000°06'0 0.0
2019-May-15 13:28N 49°29' E 000°06'0 0.0
2019-May-15 12:58N 49°29' E 000°06'0 0.0
2019-May-15 12:30N 49°29' E 000°06'0 0.0
2019-May-15 12:00N 49°29' E 000°06'0 0.0
2019-May-15 11:27N 49°29' E 000°06'0 0.0
2019-May-15 10:59N 49°29' E 000°06'0 0.0
2019-May-15 10:29N 49°29' E 000°06'0 0.0
2019-May-15 09:59N 49°29' E 000°06'0 0.0
2019-May-15 09:29N 49°29' E 000°06'0 0.0
2019-May-15 09:00N 49°29' E 000°06'0 0.0
2019-May-15 08:30N 49°29' E 000°06'0 0.0
2019-May-15 07:58N 49°29' E 000°06'0 0.0
2019-May-15 07:30N 49°29' E 000°06'0 0.0
2019-May-15 07:00N 49°29' E 000°06'0 0.0
2019-May-15 06:29N 49°29' E 000°06'0 0.0
2019-May-15 05:59N 49°29' E 000°06'0 0.9
2019-May-15 05:30N 49°29' E 000°07'3 5.3
2019-May-15 05:00N 49°30' E 000°03'510.8
2019-May-15 04:30N 49°31' W 000°05'3 6.8
2019-May-15 04:00N 49°32' W 000°10'3 6.4
2019-May-15 03:30N 49°33' W 000°15'3 6.2
2019-May-15 03:00N 49°35' W 000°19'3 6.7
2019-May-15 02:30N 49°36' W 000°24'3 6.8
2019-May-15 02:00N 49°38' W 000°28'3 6.4
2019-May-15 01:30N 49°39' W 000°32'3 6.2
2019-May-15 01:00N 49°41' W 000°37'3 6.2
2019-May-15 00:30N 49°42' W 000°41'3 5.8
2019-May-15 00:00N 49°44' W 000°44'3 6.2
2019-May-14 23:29N 49°46' W 000°48'3 5.9
2019-May-14 23:00N 49°48' W 000°52'11 5.9
2019-May-14 21:10N 49°54' W 001°06'2 6.1
2019-May-14 20:51N 49°54' W 001°09'2 6.4
2019-May-14 20:30N 49°55' W 001°12'3 6.2
2019-May-14 20:00N 49°56' W 001°17'3 6.3
2019-May-14 19:31N 49°57' W 001°21'3 6.5
2019-May-14 19:01N 49°56' W 001°26'3 6.8
2019-May-14 18:30N 49°54' W 001°31'3 6.9
2019-May-14 18:00N 49°51' W 001°33'3 6.9
2019-May-14 17:31N 49°48' W 001°35'4 7.0
2019-May-14 17:01N 49°45' W 001°38'4 7.5
2019-May-14 16:30N 49°42' W 001°40'3 1.3
2019-May-14 13:57N 49°39' W 001°37'0 0.0
2019-May-14 13:27N 49°39' W 001°37'0 0.0
2019-May-14 12:57N 49°39' W 001°37'0 0.0
2019-May-14 12:14N 49°39' W 001°37'0 0.0
2019-May-14 12:00N 49°39' W 001°37'0 0.0
2019-May-14 11:27N 49°39' W 001°37'0 0.0
2019-May-14 10:59N 49°39' W 001°37'0 0.0
2019-May-14 10:27N 49°39' W 001°37'0 0.0
2019-May-14 09:56N 49°39' W 001°37'0 0.0
2019-May-14 09:23N 49°39' W 001°37'0 0.0
2019-May-14 08:59N 49°39' W 001°37'0 0.0
2019-May-14 08:29N 49°39' W 001°37'0 0.0
2019-May-14 07:59N 49°39' W 001°37'0 0.0
2019-May-14 07:25N 49°39' W 001°37'0 0.0
2019-May-14 06:58N 49°39' W 001°37'0 0.0
2019-May-14 06:22N 49°39' W 001°37'0 1.0
2019-May-14 06:00N 49°39' W 001°37'4 8.5
2019-May-14 05:30N 49°42' W 001°41'510.9
2019-May-14 05:00N 49°45' W 001°49'815.0
2019-May-14 04:30N 49°48' W 001°60'816.9
2019-May-14 04:00N 49°51' W 002°12'816.7
2019-May-14 03:30N 49°53' W 002°24'917.7
2019-May-14 03:01N 49°51' W 002°38'918.0
2019-May-14 02:30N 49°49' W 002°51'917.3
2019-May-14 02:00N 49°46' W 003°04'917.6
2019-May-14 01:30N 49°40' W 003°15'917.9
2019-May-14 01:00N 49°34' W 003°25'918.2
2019-May-14 00:30N 49°29' W 003°36'918.3
2019-May-14 00:00N 49°24' W 003°48'918.1
2019-May-13 23:31N 49°18' W 003°59'917.9
2019-May-13 23:00N 49°13' W 004°10'1017.9
2019-May-13 22:28N 49°07' W 004°21'817.9
2019-May-13 22:00N 49°02' W 004°31'918.0
2019-May-13 21:31N 48°56' W 004°42'917.7
2019-May-13 21:01N 48°51' W 004°53'917.6
2019-May-13 20:31N 48°45' W 005°03'917.2
2019-May-13 20:01N 48°40' W 005°13'816.7
2019-May-13 19:30N 48°33' W 005°21'713.2
2019-May-13 19:01N 48°27' W 005°24'816.9
2019-May-13 18:30N 48°23' W 005°14'816.5
2019-May-13 18:00N 48°18' W 005°03'715.0
2019-May-13 17:30N 48°17' W 004°52'715.0
2019-May-13 17:01N 48°18' W 004°41'713.8
2019-May-13 16:30N 48°21' W 004°32'3 6.1
2019-May-13 15:58N 48°23' W 004°28'0 0.0
2019-May-13 15:28N 48°23' W 004°27'0 0.0
2019-May-13 14:58N 48°23' W 004°28'0 0.0
2019-May-13 14:28N 48°23' W 004°27'0 0.0
2019-May-13 13:58N 48°23' W 004°28'0 0.0
2019-May-13 13:30N 48°23' W 004°28'0 0.0
2019-May-13 13:00N 48°23' W 004°28'0 0.0
2019-May-13 12:30N 48°23' W 004°28'0 0.0
2019-May-13 12:00N 48°23' W 004°27'0 0.0
2019-May-13 11:30N 48°23' W 004°27'0 0.0
2019-May-13 10:59N 48°23' W 004°28'0 0.0
2019-May-13 10:30N 48°23' W 004°27'0 0.0
2019-May-13 10:00N 48°23' W 004°27'0 0.0
2019-May-13 09:29N 48°23' W 004°27'0 0.0
2019-May-13 08:59N 48°23' W 004°28'0 0.0
2019-May-13 08:29N 48°23' W 004°27'0 0.0
2019-May-13 07:59N 48°23' W 004°27'0 0.4
2019-May-13 07:30N 48°23' W 004°28'4 8.3
2019-May-13 07:01N 48°21' W 004°33'714.5
2019-May-13 06:30N 48°18' W 004°43'816.9
2019-May-13 06:00N 48°15' W 004°55'917.5
2019-May-13 05:31N 48°12' W 005°07'917.1
2019-May-13 04:57N 48°08' W 005°20'47817.7
2019-May-12 02:01N 43°55' W 015°04'017.6
2019-May-12 02:00N 43°55' W 015°04'917.9
2019-May-12 01:30N 43°49' W 015°14'48218.9
2019-May-10 23:56N 38°48' W 023°36'819.0
2019-May-10 23:29N 38°43' W 023°44'1018.8
2019-May-10 22:56N 38°36' W 023°54'818.7
2019-May-10 22:30N 38°30' W 024°01'918.9
2019-May-10 22:00N 38°24' W 024°10'918.8
2019-May-10 21:31N 38°18' W 024°19'1019.3
2019-May-10 21:00N 38°11' W 024°28'1019.1
2019-May-10 20:30N 38°05' W 024°37'1019.3
2019-May-10 20:00N 37°59' W 024°47'1019.2
2019-May-10 19:30N 37°52' W 024°56'918.7
2019-May-10 19:00N 37°46' W 025°04'918.1
2019-May-10 18:30N 37°42' W 025°15'918.8
2019-May-10 18:01N 37°41' W 025°26'917.3
2019-May-10 17:30N 37°43' W 025°37'2 4.3
2019-May-10 16:59N 37°44' W 025°40'  

Dump ship's entire track history